Time;durP1;ratioP1;P1;durP2;ratioP2;P2;SDS_P1;SDS_P2;PMS_P1;PMS_P2;Temp;Humidity;BMP_temperature;BMP_pressure;BME280_temperature;BME280_humidity;BME280_pressure;Samples;Min_cycle;Max_cycle;Signal;HPM_P1;HPM_P2
2024/04/09 00:01:45;;;;;;;;;;;22.30;37.00;;;;;;5530158;25;1658;-67
2024/04/09 00:04:11;;;;;;;;;;;22.30;36.90;;;;;;5531546;25;1625;-69
2024/04/09 00:06:39;;;;;;;;;;;22.30;37.00;;;;;;5530303;26;1768;-69
2024/04/09 00:09:05;;;;;;;;;;;22.30;36.70;;;;;;5531585;26;1013;-69
2024/04/09 00:11:35;;;;;;;;;;;22.30;36.60;;;;;;5531378;26;1827;-69
2024/04/09 00:14:04;;;;;;;;;;;22.30;36.60;;;;;;5529577;25;1981;-69
2024/04/09 00:16:33;;;;;;;;;;;22.30;36.50;;;;;;5531480;25;999;-69
2024/04/09 00:18:58;;;;;;;;;;;22.30;36.40;;;;;;5531395;25;1018;-69
2024/04/09 00:21:28;;;;;;;;;;;22.30;36.30;;;;;;5529957;25;1824;-69
2024/04/09 00:23:56;;;;;;;;;;;22.30;36.30;;;;;;5529383;26;1562;-69
2024/04/09 00:26:26;;;;;;;;;;;22.30;36.20;;;;;;5531148;25;1332;-69
2024/04/09 00:28:51;;;;;;;;;;;22.30;36.20;;;;;;5531208;25;956;-69
2024/04/09 00:31:19;;;;;;;;;;;22.30;36.20;;;;;;5531140;25;988;-69
2024/04/09 00:33:45;;;;;;;;;;;22.30;36.00;;;;;;5529254;25;2065;-69
2024/04/09 00:36:14;;;;;;;;;;;22.30;36.20;;;;;;5528255;25;1878;-69
2024/04/09 00:38:39;;;;;;;;;;;22.30;36.10;;;;;;5530993;26;994;-69
2024/04/09 00:41:10;;;;;;;;;;;22.30;36.00;;;;;;5530972;26;986;-68
2024/04/09 00:43:37;;;;;;;;;;;22.30;36.50;;;;;;5528569;25;1910;-69
2024/04/09 00:46:05;;;;;;;;;;;22.30;35.90;;;;;;5530846;25;987;-69
2024/04/09 00:48:30;;;;;;;;;;;22.30;35.90;;;;;;5530832;25;1009;-69
2024/04/09 00:50:58;;;;;;;;;;;22.30;35.90;;;;;;5530824;25;991;-69
2024/04/09 00:53:24;;;;;;;;;;;22.30;35.90;;;;;;5529139;25;1977;-69
2024/04/09 00:55:52;;;;;;;;;;;22.30;36.20;;;;;;5529257;26;1827;-69
2024/04/09 00:58:18;;;;;;;;;;;22.30;36.30;;;;;;5530720;25;1017;-69
2024/04/09 01:00:46;;;;;;;;;;;22.30;36.10;;;;;;5530717;25;997;-69
2024/04/09 01:03:11;;;;;;;;;;;22.30;36.20;;;;;;5529189;25;1634;-69
2024/04/09 01:05:39;;;;;;;;;;;22.30;36.20;;;;;;5528694;25;1844;-67
2024/04/09 01:08:05;;;;;;;;;;;22.30;36.30;;;;;;5530588;25;969;-69
2024/04/09 01:10:33;;;;;;;;;;;22.30;36.20;;;;;;5530543;25;1109;-69
2024/04/09 01:12:58;;;;;;;;;;;22.30;36.20;;;;;;5530377;25;1868;-69
2024/04/09 01:15:27;;;;;;;;;;;22.30;36.20;;;;;;5530498;25;1001;-69
2024/04/09 01:17:52;;;;;;;;;;;22.30;36.30;;;;;;5527937;25;1974;-68
2024/04/09 01:20:20;;;;;;;;;;;22.30;36.20;;;;;;5530543;25;1001;-69
2024/04/09 01:22:46;;;;;;;;;;;22.30;36.30;;;;;;5528756;25;1922;-69
2024/04/09 01:25:14;;;;;;;;;;;22.30;36.30;;;;;;5530387;26;1033;-69
2024/04/09 01:27:40;;;;;;;;;;;22.20;36.20;;;;;;5529049;25;1879;-69
2024/04/09 01:30:08;;;;;;;;;;;22.20;36.10;;;;;;5530629;25;975;-69
2024/04/09 01:32:34;;;;;;;;;;;22.30;36.20;;;;;;5528854;25;1833;-69
2024/04/09 01:35:06;;;;;;;;;;;22.20;36.10;;;;;;5530134;25;975;-68
2024/04/09 01:37:31;;;;;;;;;;;22.20;36.10;;;;;;5527062;25;1994;-69
2024/04/09 01:39:59;;;;;;;;;;;22.20;36.10;;;;;;5530183;25;1108;-69
2024/04/09 01:42:25;;;;;;;;;;;22.20;36.80;;;;;;5530206;25;1147;-69
2024/04/09 01:44:53;;;;;;;;;;;22.30;36.20;;;;;;5530207;25;1991;-69
2024/04/09 01:47:18;;;;;;;;;;;22.20;36.10;;;;;;5530021;25;1022;-69
2024/04/09 01:49:46;;;;;;;;;;;22.20;36.10;;;;;;5528258;25;2006;-69
2024/04/09 01:52:12;;;;;;;;;;;22.20;36.00;;;;;;5528807;25;1938;-69
2024/04/09 01:54:40;;;;;;;;;;;22.20;36.00;;;;;;5529498;26;1080;-69
2024/04/09 01:57:05;;;;;;;;;;;22.20;36.00;;;;;;5528728;26;995;-69
2024/04/09 01:59:33;;;;;;;;;;;22.20;36.60;;;;;;5528437;25;1993;-69
2024/04/09 02:01:59;;;;;;;;;;;22.20;35.90;;;;;;5529822;25;1016;-69
2024/04/09 02:04:27;;;;;;;;;;;22.20;36.00;;;;;;5529892;25;991;-69
2024/04/09 02:06:53;;;;;;;;;;;22.20;36.00;;;;;;5528700;25;2027;-69
2024/04/09 02:09:22;;;;;;;;;;;22.20;35.90;;;;;;5529673;26;986;-68
2024/04/09 02:11:48;;;;;;;;;;;22.20;35.90;;;;;;5527704;26;1908;-69
2024/04/09 02:14:16;;;;;;;;;;;22.20;35.80;;;;;;5529614;25;1877;-69
2024/04/09 02:16:42;;;;;;;;;;;22.20;35.90;;;;;;5528302;25;1709;-69
2024/04/09 02:19:10;;;;;;;;;;;22.20;35.80;;;;;;5529502;25;1084;-69
2024/04/09 02:21:36;;;;;;;;;;;22.20;35.80;;;;;;5528237;25;2065;-69
2024/04/09 02:24:04;;;;;;;;;;;22.20;35.70;;;;;;5530484;26;1011;-69
2024/04/09 02:26:29;;;;;;;;;;;22.20;35.70;;;;;;5530641;26;964;-69
2024/04/09 02:28:57;;;;;;;;;;;22.20;35.70;;;;;;5527677;25;1920;-69
2024/04/09 02:31:23;;;;;;;;;;;22.20;35.70;;;;;;5529810;25;1008;-69
2024/04/09 02:33:51;;;;;;;;;;;22.20;35.80;;;;;;5529561;25;1890;-69
2024/04/09 02:36:18;;;;;;;;;;;22.20;35.80;;;;;;5527920;25;1887;-67
2024/04/09 02:38:46;;;;;;;;;;;22.20;35.80;;;;;;5527865;25;1929;-69
2024/04/09 02:41:14;;;;;;;;;;;22.20;35.60;;;;;;5529547;25;1001;-69
2024/04/09 02:43:42;;;;;;;;;;;22.20;35.60;;;;;;5524157;25;1534;-69
2024/04/09 02:46:08;;;;;;;;;;;22.20;35.60;;;;;;5528570;25;962;-69
2024/04/09 02:48:36;;;;;;;;;;;22.20;35.80;;;;;;5527985;25;1990;-68
2024/04/09 02:51:03;;;;;;;;;;;22.10;35.90;;;;;;5524575;26;1079;-69
2024/04/09 02:53:32;;;;;;;;;;;22.10;35.90;;;;;;5527281;25;1922;-69
2024/04/09 02:55:57;;;;;;;;;;;22.10;35.90;;;;;;5529027;26;1014;-69
2024/04/09 02:58:25;;;;;;;;;;;22.10;36.00;;;;;;5528895;26;914;-69
2024/04/09 03:00:51;;;;;;;;;;;22.10;36.10;;;;;;5533991;20;2810;-69
2024/04/09 03:03:19;;;;;;;;;;;22.10;36.10;;;;;;5491242;26;1106;-69
2024/04/09 03:05:44;;;;;;;;;;;22.10;36.20;;;;;;5491464;26;1020;-69
2024/04/09 03:08:12;;;;;;;;;;;22.10;36.20;;;;;;5464409;26;1952;-69
2024/04/09 03:10:38;;;;;;;;;;;22.10;36.10;;;;;;5455948;26;1817;-69
2024/04/09 03:13:06;;;;;;;;;;;22.10;36.20;;;;;;5488203;26;2129;-69
2024/04/09 03:15:31;;;;;;;;;;;22.10;36.20;;;;;;5491304;26;974;-69
2024/04/09 03:17:59;;;;;;;;;;;22.10;36.20;;;;;;5491236;26;1006;-69
2024/04/09 03:20:25;;;;;;;;;;;22.10;36.30;;;;;;5491242;26;969;-69
2024/04/09 03:22:53;;;;;;;;;;;22.10;36.30;;;;;;5484483;26;1892;-69
2024/04/09 03:25:18;;;;;;;;;;;22.10;36.30;;;;;;5491156;26;1020;-69
2024/04/09 03:27:46;;;;;;;;;;;22.10;36.30;;;;;;5457102;26;1851;-69
2024/04/09 03:30:12;;;;;;;;;;;22.10;36.30;;;;;;5455530;26;1987;-69
2024/04/09 03:32:40;;;;;;;;;;;22.00;36.20;;;;;;5467038;26;1891;-69
2024/04/09 03:35:06;;;;;;;;;;;22.00;36.20;;;;;;5459700;26;2050;-69
2024/04/09 03:37:34;;;;;;;;;;;22.00;36.20;;;;;;5454538;26;1947;-69
2024/04/09 03:40:02;;;;;;;;;;;22.00;36.20;;;;;;5454495;26;1831;-69
2024/04/09 03:42:30;;;;;;;;;;;22.10;36.20;;;;;;5454384;26;1180;-69
2024/04/09 03:44:56;;;;;;;;;;;22.10;36.10;;;;;;5470659;26;1507;-69
2024/04/09 03:47:24;;;;;;;;;;;22.10;36.00;;;;;;5490743;26;1142;-69
2024/04/09 03:49:49;;;;;;;;;;;22.10;36.10;;;;;;5488875;26;1872;-69
2024/04/09 03:52:17;;;;;;;;;;;22.10;36.00;;;;;;5470465;26;1845;-69
2024/04/09 03:54:43;;;;;;;;;;;22.10;36.10;;;;;;5454261;26;1006;-69
2024/04/09 03:57:11;;;;;;;;;;;22.00;36.00;;;;;;5454304;26;998;-69
2024/04/09 03:59:36;;;;;;;;;;;22.00;36.10;;;;;;5454072;26;1634;-69
2024/04/09 04:02:04;;;;;;;;;;;22.00;36.20;;;;;;5458591;26;1907;-69
2024/04/09 04:04:30;;;;;;;;;;;22.00;36.20;;;;;;5490356;26;1037;-69
2024/04/09 04:06:58;;;;;;;;;;;22.00;36.20;;;;;;5477183;26;2026;-69
2024/04/09 04:09:26;;;;;;;;;;;22.00;36.20;;;;;;5453972;26;1052;-69
2024/04/09 04:11:51;;;;;;;;;;;22.00;36.10;;;;;;5453947;26;1010;-69
2024/04/09 04:14:19;;;;;;;;;;;22.00;36.10;;;;;;5453496;26;1841;-69
2024/04/09 04:16:45;;;;;;;;;;;22.00;36.10;;;;;;5458528;26;1885;-69
2024/04/09 04:19:13;;;;;;;;;;;22.00;36.10;;;;;;5491411;26;1208;-69
2024/04/09 04:21:39;;;;;;;;;;;22.00;36.10;;;;;;5493896;26;956;-69
2024/04/09 04:24:07;;;;;;;;;;;22.00;36.10;;;;;;5493869;26;1097;-69
2024/04/09 04:26:32;;;;;;;;;;;22.00;36.10;;;;;;5493879;26;977;-69
2024/04/09 04:29:01;;;;;;;;;;;22.00;36.10;;;;;;5485025;26;1868;-69
2024/04/09 04:31:27;;;;;;;;;;;22.00;36.10;;;;;;5456918;26;1971;-69
2024/04/09 04:33:55;;;;;;;;;;;22.00;36.10;;;;;;5457244;26;1846;-69
2024/04/09 04:36:20;;;;;;;;;;;22.00;36.10;;;;;;5457651;26;1038;-69
2024/04/09 04:38:48;;;;;;;;;;;22.00;36.00;;;;;;5457183;26;1005;-69
2024/04/09 04:41:14;;;;;;;;;;;22.00;36.00;;;;;;5457129;26;990;-69
2024/04/09 04:43:42;;;;;;;;;;;22.00;36.00;;;;;;5457065;26;1199;-69
2024/04/09 04:46:08;;;;;;;;;;;22.00;36.00;;;;;;5457112;26;1231;-69
2024/04/09 04:48:37;;;;;;;;;;;22.00;36.00;;;;;;5457079;26;1277;-69
2024/04/09 04:51:03;;;;;;;;;;;22.00;36.00;;;;;;5458090;26;1023;-69
2024/04/09 04:53:31;;;;;;;;;;;22.00;36.00;;;;;;5458108;26;1834;-69
2024/04/09 04:55:56;;;;;;;;;;;22.00;35.90;;;;;;5457165;26;991;-69
2024/04/09 04:58:24;;;;;;;;;;;22.00;35.90;;;;;;5458650;26;995;-69
2024/04/09 05:00:50;;;;;;;;;;;22.00;35.90;;;;;;5459209;26;1415;-69
2024/04/09 05:03:18;;;;;;;;;;;22.00;35.90;;;;;;5464691;26;1555;-70
2024/04/09 05:05:45;;;;;;;;;;;22.00;36.00;;;;;;5458454;26;961;-70
2024/04/09 05:08:13;;;;;;;;;;;22.00;35.90;;;;;;5461055;26;1317;-70
2024/04/09 05:10:39;;;;;;;;;;;22.00;35.90;;;;;;5457781;26;1016;-70
2024/04/09 05:13:07;;;;;;;;;;;22.00;36.30;;;;;;5482457;26;1895;-70
2024/04/09 05:15:32;;;;;;;;;;;22.00;36.60;;;;;;5496224;26;1163;-70
2024/04/09 05:18:01;;;;;;;;;;;22.00;36.80;;;;;;5491528;26;1883;-71
2024/04/09 05:20:27;;;;;;;;;;;22.10;36.80;;;;;;5489977;26;1556;-71
2024/04/09 05:22:56;;;;;;;;;;;22.00;36.70;;;;;;5471959;26;1500;-72
2024/04/09 05:25:21;;;;;;;;;;;22.00;36.90;;;;;;5492611;26;1014;-72
2024/04/09 05:27:50;;;;;;;;;;;22.10;37.20;;;;;;5490002;26;1592;-71
2024/04/09 05:30:15;;;;;;;;;;;22.10;37.20;;;;;;5474466;26;1536;-71
2024/04/09 05:32:44;;;;;;;;;;;22.10;37.30;;;;;;5489836;26;1837;-71
2024/04/09 05:35:09;;;;;;;;;;;22.10;37.40;;;;;;5456439;26;1496;-72
2024/04/09 05:37:37;;;;;;;;;;;22.10;37.40;;;;;;5458135;26;1886;-73
2024/04/09 05:40:08;;;;;;;;;;;22.10;37.40;;;;;;5484231;26;1445;-72
2024/04/09 05:42:36;;;;;;;;;;;22.10;38.20;;;;;;5487997;26;1443;-72
2024/04/09 05:45:02;;;;;;;;;;;22.10;37.50;;;;;;5489616;26;1456;-72
2024/04/09 05:47:30;;;;;;;;;;;22.10;37.60;;;;;;5486796;26;1457;-72
2024/04/09 05:49:56;;;;;;;;;;;22.10;37.70;;;;;;5464528;26;1444;-72
2024/04/09 05:52:24;;;;;;;;;;;22.10;37.80;;;;;;5461498;26;1587;-72
2024/04/09 05:54:49;;;;;;;;;;;22.10;38.20;;;;;;5462555;26;1842;-72
2024/04/09 05:57:17;;;;;;;;;;;22.10;38.30;;;;;;5489182;26;1635;-72
2024/04/09 05:59:43;;;;;;;;;;;22.10;38.40;;;;;;5492295;26;1808;-72
2024/04/09 06:02:11;;;;;;;;;;;22.10;38.20;;;;;;5492505;26;1142;-72
2024/04/09 06:04:37;;;;;;;;;;;22.10;38.30;;;;;;5492295;26;997;-72
2024/04/09 06:07:05;;;;;;;;;;;22.10;38.40;;;;;;5492289;26;997;-71
2024/04/09 06:09:30;;;;;;;;;;;22.10;38.60;;;;;;5492342;26;966;-71
2024/04/09 06:11:58;;;;;;;;;;;22.10;38.80;;;;;;5492360;26;998;-71
2024/04/09 06:14:24;;;;;;;;;;;22.10;39.10;;;;;;5492495;26;1837;-71
2024/04/09 06:16:52;;;;;;;;;;;22.10;39.30;;;;;;5492600;26;1005;-71
2024/04/09 06:19:17;;;;;;;;;;;22.10;39.60;;;;;;5492763;26;1015;-71
2024/04/09 06:21:46;;;;;;;;;;;22.10;39.90;;;;;;5492331;26;990;-72
2024/04/09 06:24:11;;;;;;;;;;;22.10;40.00;;;;;;5491616;26;1550;-70
2024/04/09 06:26:39;;;;;;;;;;;22.10;40.20;;;;;;5492190;26;972;-70
2024/04/09 06:29:05;;;;;;;;;;;22.10;39.90;;;;;;5492455;26;1022;-71
2024/04/09 06:31:33;;;;;;;;;;;22.10;39.70;;;;;;5492623;26;1646;-71
2024/04/09 06:33:59;;;;;;;;;;;22.10;39.70;;;;;;5492696;26;2156;-72
2024/04/09 06:36:27;;;;;;;;;;;22.10;39.50;;;;;;5492241;26;1029;-72
2024/04/09 06:38:53;;;;;;;;;;;22.10;39.60;;;;;;5491884;26;994;-72
2024/04/09 06:41:21;;;;;;;;;;;22.10;39.50;;;;;;5490748;26;971;-72
2024/04/09 06:43:46;;;;;;;;;;;22.10;39.50;;;;;;5491754;26;1144;-72
2024/04/09 06:46:14;;;;;;;;;;;22.10;39.50;;;;;;5491806;26;959;-72
2024/04/09 06:48:40;;;;;;;;;;;22.10;39.50;;;;;;5491786;26;1016;-71
2024/04/09 06:51:08;;;;;;;;;;;22.10;39.40;;;;;;5459446;26;1557;-72
2024/04/09 06:53:33;;;;;;;;;;;22.10;39.40;;;;;;5491640;26;1892;-71
2024/04/09 06:56:03;;;;;;;;;;;22.10;39.40;;;;;;5491701;26;982;-72
2024/04/09 06:58:28;;;;;;;;;;;22.10;39.40;;;;;;5491998;26;1087;-71
2024/04/09 07:00:56;;;;;;;;;;;22.20;39.40;;;;;;5491488;26;1088;-71
2024/04/09 07:03:22;;;;;;;;;;;22.20;39.40;;;;;;5491506;26;1024;-71
2024/04/09 07:05:50;;;;;;;;;;;22.20;39.50;;;;;;5491635;26;1979;-71
2024/04/09 07:08:15;;;;;;;;;;;22.20;39.50;;;;;;5491625;26;1036;-71
2024/04/09 07:10:44;;;;;;;;;;;22.20;39.60;;;;;;5491869;26;1029;-71
2024/04/09 07:13:09;;;;;;;;;;;22.20;39.60;;;;;;5491304;26;1863;-70
2024/04/09 07:15:37;;;;;;;;;;;22.20;39.60;;;;;;5491111;26;993;-70
2024/04/09 07:18:03;;;;;;;;;;;22.20;39.80;;;;;;5491134;26;1049;-70
2024/04/09 07:20:31;;;;;;;;;;;22.20;39.80;;;;;;5490929;26;1031;-70
2024/04/09 07:22:57;;;;;;;;;;;22.20;39.80;;;;;;5490864;26;992;-70
2024/04/09 07:25:25;;;;;;;;;;;22.20;39.70;;;;;;5491118;26;1039;-70
2024/04/09 07:27:50;;;;;;;;;;;22.20;39.70;;;;;;5490911;26;974;-70
2024/04/09 07:30:18;;;;;;;;;;;22.20;39.80;;;;;;5491099;26;1101;-70
2024/04/09 07:32:44;;;;;;;;;;;22.20;39.70;;;;;;5491157;26;1840;-69
2024/04/09 07:35:12;;;;;;;;;;;22.20;39.70;;;;;;5491218;26;1343;-70
2024/04/09 07:37:37;;;;;;;;;;;22.20;39.70;;;;;;5491131;26;971;-70
2024/04/09 07:40:06;;;;;;;;;;;22.30;39.80;;;;;;5491243;26;994;-70
2024/04/09 07:42:32;;;;;;;;;;;22.30;39.80;;;;;;5490808;26;1780;-70
2024/04/09 07:45:00;;;;;;;;;;;22.30;39.70;;;;;;5490845;26;1017;-70
2024/04/09 07:47:25;;;;;;;;;;;22.30;39.70;;;;;;5490834;26;1045;-70
2024/04/09 07:49:53;;;;;;;;;;;22.30;39.70;;;;;;5490851;26;1026;-71
2024/04/09 07:52:19;;;;;;;;;;;22.30;39.70;;;;;;5490937;26;974;-71
2024/04/09 07:54:47;;;;;;;;;;;22.30;39.70;;;;;;5494357;26;1956;-70
2024/04/09 07:57:14;;;;;;;;;;;22.30;39.80;;;;;;5494289;26;1009;-70
2024/04/09 07:59:43;;;;;;;;;;;22.30;39.70;;;;;;5494179;26;963;-71
2024/04/09 08:02:09;;;;;;;;;;;22.30;39.80;;;;;;5494421;26;1107;-70
2024/04/09 08:04:39;;;;;;;;;;;22.30;39.80;;;;;;5486588;26;1416;-70
2024/04/09 08:07:04;;;;;;;;;;;22.30;39.80;;;;;;5495260;26;1449;-70
2024/04/09 08:09:32;;;;;;;;;;;22.30;39.80;;;;;;5494781;26;958;-70
2024/04/09 08:11:58;;;;;;;;;;;22.30;39.80;;;;;;5494219;26;1027;-70
2024/04/09 08:14:26;;;;;;;;;;;22.30;39.90;;;;;;5494082;26;1884;-70
2024/04/09 08:16:52;;;;;;;;;;;22.30;39.90;;;;;;5494217;26;1016;-70
2024/04/09 08:19:22;;;;;;;;;;;22.30;40.10;;;;;;5494038;26;1030;-71
2024/04/09 08:21:47;;;;;;;;;;;22.30;40.20;;;;;;5494234;26;954;-71
2024/04/09 08:24:15;;;;;;;;;;;22.20;40.20;;;;;;5494197;26;1300;-71
2024/04/09 08:26:41;;;;;;;;;;;22.30;40.30;;;;;;5494331;26;969;-71
2024/04/09 08:29:14;;;;;;;;;;;22.20;40.80;;;;;;5494122;26;973;-71
2024/04/09 08:31:42;;;;;;;;;;;22.30;40.20;;;;;;5493967;26;1022;-71
2024/04/09 08:34:10;;;;;;;;;;;22.20;40.10;;;;;;5493731;26;1838;-71
2024/04/09 08:36:36;;;;;;;;;;;22.20;40.00;;;;;;5494098;26;978;-70
2024/04/09 08:39:04;;;;;;;;;;;22.20;40.00;;;;;;5494134;26;971;-71
2024/04/09 08:41:30;;;;;;;;;;;22.20;40.00;;;;;;5493860;26;1138;-71
2024/04/09 08:43:58;;;;;;;;;;;22.20;40.60;;;;;;5493562;26;1201;-71
2024/04/09 08:46:23;;;;;;;;;;;22.20;40.00;;;;;;5493806;26;968;-71
2024/04/09 08:48:52;;;;;;;;;;;22.20;40.00;;;;;;5494022;26;987;-71
2024/04/09 08:51:17;;;;;;;;;;;22.20;40.00;;;;;;5493883;26;970;-70
2024/04/09 08:53:45;;;;;;;;;;;22.20;39.90;;;;;;5493467;26;1896;-70
2024/04/09 08:56:10;;;;;;;;;;;22.20;39.90;;;;;;5493562;26;1013;-70
2024/04/09 08:58:38;;;;;;;;;;;22.20;39.80;;;;;;5493722;26;891;-71
2024/04/09 09:01:04;;;;;;;;;;;22.20;39.90;;;;;;5493460;26;1255;-71
2024/04/09 09:03:32;;;;;;;;;;;22.20;39.80;;;;;;5487554;26;2115;-71
2024/04/09 09:05:57;;;;;;;;;;;22.20;39.70;;;;;;5490114;26;1061;-71
2024/04/09 09:08:26;;;;;;;;;;;22.20;39.60;;;;;;5492138;26;999;-71
2024/04/09 09:10:51;;;;;;;;;;;22.20;39.50;;;;;;5495741;26;1009;-71
2024/04/09 09:13:20;;;;;;;;;;;22.20;39.50;;;;;;5494997;26;1886;-71
2024/04/09 09:15:45;;;;;;;;;;;22.20;39.40;;;;;;5494118;26;1157;-71
2024/04/09 09:18:13;;;;;;;;;;;22.20;39.40;;;;;;5496087;26;987;-71
2024/04/09 09:20:39;;;;;;;;;;;22.20;39.20;;;;;;5495394;26;1004;-71
2024/04/09 09:23:07;;;;;;;;;;;22.20;39.20;;;;;;5493723;26;1013;-71
2024/04/09 09:25:34;;;;;;;;;;;22.20;39.10;;;;;;5495260;26;1025;-71
2024/04/09 09:28:02;;;;;;;;;;;22.20;39.10;;;;;;5495926;26;950;-71
2024/04/09 09:30:28;;;;;;;;;;;22.20;38.90;;;;;;5493976;26;983;-71
2024/04/09 09:32:56;;;;;;;;;;;22.20;39.00;;;;;;5494944;26;1069;-71
2024/04/09 09:35:21;;;;;;;;;;;22.20;38.90;;;;;;5494906;26;1841;-71
2024/04/09 09:37:51;;;;;;;;;;;22.20;38.80;;;;;;5493520;26;1080;-71
2024/04/09 09:40:16;;;;;;;;;;;22.20;38.60;;;;;;5492647;26;1014;-71
2024/04/09 09:42:44;;;;;;;;;;;22.20;38.60;;;;;;5492508;26;1615;-71
2024/04/09 09:45:10;;;;;;;;;;;22.20;38.60;;;;;;5492582;26;990;-71
2024/04/09 09:47:38;;;;;;;;;;;22.20;38.60;;;;;;5492502;26;975;-71
2024/04/09 09:50:08;;;;;;;;;;;22.20;38.60;;;;;;5492457;26;1025;-71
2024/04/09 09:52:36;;;;;;;;;;;22.20;38.50;;;;;;5492450;26;1323;-71
2024/04/09 09:55:01;;;;;;;;;;;22.20;38.50;;;;;;5492395;26;1833;-71
2024/04/09 09:57:30;;;;;;;;;;;22.20;38.40;;;;;;5492679;26;1663;-71
2024/04/09 09:59:56;;;;;;;;;;;22.20;38.40;;;;;;5492507;26;1006;-71
2024/04/09 10:02:24;;;;;;;;;;;22.20;38.30;;;;;;5492538;26;1463;-71
2024/04/09 10:04:49;;;;;;;;;;;22.20;38.40;;;;;;5492387;26;1018;-71
2024/04/09 10:07:18;;;;;;;;;;;22.20;38.60;;;;;;5492392;26;996;-71
2024/04/09 10:09:43;;;;;;;;;;;22.20;38.70;;;;;;5492227;26;946;-71
2024/04/09 10:12:09;;;;;;;;;;;22.20;38.80;;;;;;5492813;26;987;-71
2024/04/09 10:14:37;;;;;;;;;;;22.20;39.00;;;;;;5492048;26;1845;-71
2024/04/09 10:17:02;;;;;;;;;;;22.20;39.40;;;;;;5490573;26;1014;-71
2024/04/09 10:19:31;;;;;;;;;;;22.20;39.50;;;;;;5492201;26;963;-71
2024/04/09 10:21:57;;;;;;;;;;;22.10;38.90;;;;;;5492167;26;1126;-70
2024/04/09 10:24:25;;;;;;;;;;;22.00;38.50;;;;;;5491968;26;1006;-70
2024/04/09 10:26:50;;;;;;;;;;;22.00;38.80;;;;;;5492250;26;997;-71
2024/04/09 10:29:18;;;;;;;;;;;22.00;39.00;;;;;;5488875;26;1533;-70
2024/04/09 10:31:44;;;;;;;;;;;22.10;39.40;;;;;;5492078;26;966;-70
2024/04/09 10:34:12;;;;;;;;;;;22.10;39.60;;;;;;5488757;26;1893;-71
2024/04/09 10:36:37;;;;;;;;;;;22.10;39.90;;;;;;5491949;26;1009;-71
2024/04/09 10:39:07;;;;;;;;;;;22.20;40.10;;;;;;5491937;26;1257;-71
2024/04/09 10:41:32;;;;;;;;;;;22.20;40.20;;;;;;5491832;26;958;-70
2024/04/09 10:44:00;;;;;;;;;;;22.20;40.20;;;;;;5488551;26;1592;-71
2024/04/09 10:46:26;;;;;;;;;;;21.80;37.20;;;;;;5491632;26;1025;-71
2024/04/09 10:48:54;;;;;;;;;;;21.20;36.80;;;;;;5491655;26;1001;-70
2024/04/09 10:51:19;;;;;;;;;;;20.90;37.00;;;;;;5491547;26;1199;-70
2024/04/09 10:53:47;;;;;;;;;;;21.10;37.70;;;;;;5491766;26;1842;-70
2024/04/09 10:56:14;;;;;;;;;;;21.40;37.90;;;;;;5491562;26;1015;-71
2024/04/09 10:58:42;;;;;;;;;;;21.60;37.90;;;;;;5481384;26;1535;-71
2024/04/09 11:01:12;;;;;;;;;;;21.80;38.10;;;;;;5454939;26;1107;-70
2024/04/09 11:03:40;;;;;;;;;;;21.90;38.80;;;;;;5456521;26;1793;-71
2024/04/09 11:06:06;;;;;;;;;;;22.00;38.70;;;;;;5476652;26;1567;-71
2024/04/09 11:08:34;;;;;;;;;;;22.00;38.70;;;;;;5491148;26;1019;-70
2024/04/09 11:11:00;;;;;;;;;;;22.00;38.50;;;;;;5491304;26;2214;-71
2024/04/09 11:13:28;;;;;;;;;;;22.00;38.50;;;;;;5491098;26;1825;-71
2024/04/09 11:15:54;;;;;;;;;;;22.00;38.70;;;;;;5491313;26;1037;-68
2024/04/09 11:18:23;;;;;;;;;;;22.00;38.80;;;;;;5491306;26;991;-69
2024/04/09 11:20:48;;;;;;;;;;;22.00;38.70;;;;;;5491228;26;1024;-69
2024/04/09 11:23:16;;;;;;;;;;;22.00;38.70;;;;;;5491291;26;2072;-69
2024/04/09 11:25:42;;;;;;;;;;;22.10;39.40;;;;;;5491231;26;962;-69
2024/04/09 11:28:10;;;;;;;;;;;22.10;38.80;;;;;;5492328;26;1056;-69
2024/04/09 11:30:42;;;;;;;;;;;22.10;38.80;;;;;;5494979;26;1126;-69
2024/04/09 11:33:10;;;;;;;;;;;22.00;38.70;;;;;;5494882;26;947;-69
2024/04/09 11:35:36;;;;;;;;;;;22.00;38.70;;;;;;5494784;26;1841;-69
2024/04/09 11:38:04;;;;;;;;;;;22.00;38.70;;;;;;5494761;26;1127;-69
2024/04/09 11:40:31;;;;;;;;;;;22.00;38.70;;;;;;5494723;26;1169;-70
2024/04/09 11:42:59;;;;;;;;;;;22.00;38.70;;;;;;5494650;26;1212;-69
2024/04/09 11:45:24;;;;;;;;;;;22.00;38.70;;;;;;5495131;26;973;-69
2024/04/09 11:47:52;;;;;;;;;;;22.00;38.70;;;;;;5495142;26;1098;-70
2024/04/09 11:50:18;;;;;;;;;;;22.00;38.60;;;;;;5494452;26;1029;-70
2024/04/09 11:52:46;;;;;;;;;;;22.00;38.70;;;;;;5494515;26;1102;-70
2024/04/09 11:55:11;;;;;;;;;;;22.00;38.70;;;;;;5494638;26;1841;-70
2024/04/09 11:57:40;;;;;;;;;;;22.00;38.70;;;;;;5494683;26;948;-70
2024/04/09 12:00:06;;;;;;;;;;;22.00;38.70;;;;;;5494593;26;1774;-70
2024/04/09 12:02:35;;;;;;;;;;;22.00;38.70;;;;;;5494187;26;1153;-70
2024/04/09 12:05:00;;;;;;;;;;;22.00;38.70;;;;;;5494320;26;1010;-70
2024/04/09 12:07:28;;;;;;;;;;;22.00;38.70;;;;;;5494542;26;952;-70
2024/04/09 12:09:56;;;;;;;;;;;22.00;38.70;;;;;;5494419;26;1056;-69
2024/04/09 12:12:22;;;;;;;;;;;22.00;38.70;;;;;;5494515;26;1008;-70
2024/04/09 12:14:50;;;;;;;;;;;22.00;38.70;;;;;;5494246;26;1920;-70
2024/04/09 12:17:15;;;;;;;;;;;22.00;38.70;;;;;;5494140;26;1043;-70
2024/04/09 12:19:43;;;;;;;;;;;22.00;38.70;;;;;;5494124;26;980;-70
2024/04/09 12:22:14;;;;;;;;;;;22.00;38.60;;;;;;5494246;26;1009;-70
2024/04/09 12:24:42;;;;;;;;;;;22.00;38.60;;;;;;5494271;26;1001;-70
2024/04/09 12:27:07;;;;;;;;;;;22.00;38.60;;;;;;5494184;26;1033;-70
2024/04/09 12:29:35;;;;;;;;;;;22.00;38.60;;;;;;5493971;26;970;-69
2024/04/09 12:32:01;;;;;;;;;;;22.00;38.60;;;;;;5494133;26;986;-69
2024/04/09 12:34:29;;;;;;;;;;;22.00;38.60;;;;;;5494226;26;1871;-69
2024/04/09 12:36:54;;;;;;;;;;;22.00;38.50;;;;;;5494024;26;978;-70
2024/04/09 12:39:24;;;;;;;;;;;22.00;38.50;;;;;;5492634;26;965;-70
2024/04/09 12:41:50;;;;;;;;;;;22.00;38.50;;;;;;5493963;26;1033;-70
2024/04/09 12:44:18;;;;;;;;;;;21.90;38.40;;;;;;5494064;26;1342;-70
2024/04/09 12:46:43;;;;;;;;;;;21.90;38.40;;;;;;5493984;26;961;-70
2024/04/09 12:49:12;;;;;;;;;;;21.90;38.40;;;;;;5493894;26;985;-70
2024/04/09 12:51:38;;;;;;;;;;;21.90;38.30;;;;;;5493725;26;959;-69
2024/04/09 12:54:07;;;;;;;;;;;21.90;38.30;;;;;;5493602;26;1845;-69
2024/04/09 12:56:32;;;;;;;;;;;21.90;38.30;;;;;;5493481;26;1182;-70
2024/04/09 12:59:00;;;;;;;;;;;21.90;38.30;;;;;;5493475;26;997;-70
2024/04/09 13:01:26;;;;;;;;;;;21.90;38.20;;;;;;5493827;26;1076;-70
2024/04/09 13:03:54;;;;;;;;;;;21.90;38.10;;;;;;5491820;26;1830;-70
2024/04/09 13:06:20;;;;;;;;;;;22.00;38.20;;;;;;5473109;26;1792;-70
2024/04/09 13:08:50;;;;;;;;;;;21.90;38.10;;;;;;5492583;26;997;-70
2024/04/09 13:11:15;;;;;;;;;;;21.90;38.20;;;;;;5475717;26;1576;-69
2024/04/09 13:13:44;;;;;;;;;;;21.90;38.30;;;;;;5456610;26;1875;-70
2024/04/09 13:16:09;;;;;;;;;;;21.90;38.30;;;;;;5488004;26;1568;-71
2024/04/09 13:18:37;;;;;;;;;;;21.90;38.30;;;;;;5493032;26;1001;-70
2024/04/09 13:21:03;;;;;;;;;;;21.90;38.30;;;;;;5493530;26;1439;-70
2024/04/09 13:23:31;;;;;;;;;;;21.90;38.40;;;;;;5493176;26;1513;-71
2024/04/09 13:25:57;;;;;;;;;;;21.90;38.30;;;;;;5492779;26;979;-71
2024/04/09 13:28:25;;;;;;;;;;;21.90;38.40;;;;;;5492539;26;998;-71
2024/04/09 13:30:51;;;;;;;;;;;21.90;38.40;;;;;;5494096;26;998;-70
2024/04/09 13:33:19;;;;;;;;;;;21.90;38.30;;;;;;5493954;26;1153;-71
2024/04/09 13:35:44;;;;;;;;;;;21.90;38.30;;;;;;5492688;26;1876;-71
2024/04/09 13:38:12;;;;;;;;;;;21.90;38.30;;;;;;5494489;26;1025;-71
2024/04/09 13:40:38;;;;;;;;;;;21.90;38.30;;;;;;5494467;26;1174;-71
2024/04/09 13:43:06;;;;;;;;;;;21.90;38.30;;;;;;5493023;26;1157;-71
2024/04/09 13:45:31;;;;;;;;;;;21.90;38.30;;;;;;5493529;26;1038;-71
2024/04/09 13:47:59;;;;;;;;;;;21.90;38.30;;;;;;5493761;26;1006;-71
2024/04/09 13:50:25;;;;;;;;;;;21.90;38.30;;;;;;5492852;26;981;-71
2024/04/09 13:52:53;;;;;;;;;;;21.90;38.20;;;;;;5492895;26;997;-72
2024/04/09 13:55:18;;;;;;;;;;;21.90;38.10;;;;;;5493119;26;1837;-72
2024/04/09 13:57:46;;;;;;;;;;;21.90;38.10;;;;;;5492570;26;1010;-71
2024/04/09 14:00:13;;;;;;;;;;;21.90;38.10;;;;;;5492274;26;1259;-70
2024/04/09 14:02:41;;;;;;;;;;;21.90;38.30;;;;;;5492354;26;995;-71
2024/04/09 14:05:07;;;;;;;;;;;21.90;38.10;;;;;;5492394;26;970;-71
2024/04/09 14:07:35;;;;;;;;;;;21.90;38.40;;;;;;5492331;26;971;-72
2024/04/09 14:10:01;;;;;;;;;;;21.90;38.40;;;;;;5492252;26;1027;-71
2024/04/09 14:12:29;;;;;;;;;;;21.80;38.30;;;;;;5492192;26;1111;-71
2024/04/09 14:14:55;;;;;;;;;;;21.90;38.10;;;;;;5492223;26;1841;-71
2024/04/09 14:17:23;;;;;;;;;;;21.80;37.30;;;;;;5492188;26;974;-71
2024/04/09 14:19:50;;;;;;;;;;;21.80;37.40;;;;;;5492106;26;1017;-71
2024/04/09 14:22:18;;;;;;;;;;;21.80;38.30;;;;;;5491979;26;959;-71
2024/04/09 14:24:44;;;;;;;;;;;21.80;37.80;;;;;;5492076;26;973;-71
2024/04/09 14:27:12;;;;;;;;;;;21.80;38.00;;;;;;5491970;26;989;-71
2024/04/09 14:29:37;;;;;;;;;;;21.80;37.90;;;;;;5492034;26;1041;-71
2024/04/09 14:32:05;;;;;;;;;;;21.80;37.80;;;;;;5491854;26;1537;-71